createdAt,value
2019-05-23T00:01:44.235Z,12.50
2019-05-23T00:04:14.803Z,12.83
2019-05-23T00:06:43.925Z,12.53
2019-05-23T00:09:13.436Z,12.47
2019-05-23T00:11:44.513Z,11.73
2019-05-23T00:14:24.048Z,12.10
2019-05-23T00:16:54.663Z,12.03
2019-05-23T00:19:23.880Z,12.20
2019-05-23T00:21:53.113Z,12.07
2019-05-23T00:24:22.324Z,11.30
2019-05-23T00:26:51.125Z,12.00
2019-05-23T00:29:21.040Z,11.30
2019-05-23T00:31:51.400Z,11.47
2019-05-23T00:34:21.586Z,11.57
2019-05-23T00:36:51.312Z,11.43
2019-05-23T00:39:20.044Z,10.63
2019-05-23T00:41:49.385Z,10.27
2019-05-23T00:44:18.262Z,10.33
2019-05-23T00:46:47.451Z,10.17
2019-05-23T00:49:16.500Z,10.17
2019-05-23T00:51:46.459Z,10.00
2019-05-23T00:54:15.800Z,10.27
2019-05-23T00:56:44.588Z,9.80
2019-05-23T00:59:25.980Z,9.60
2019-05-23T01:01:43.962Z,9.53
2019-05-23T01:04:13.317Z,9.53
2019-05-23T01:06:42.564Z,9.80
2019-05-23T01:09:12.005Z,9.20
2019-05-23T01:11:40.938Z,8.77
2019-05-23T01:14:10.056Z,9.33
2019-05-23T01:16:38.957Z,8.67
2019-05-23T01:19:09.250Z,8.97
2019-05-23T01:21:55.935Z,8.07
2019-05-23T01:24:26.493Z,8.70
2019-05-23T01:26:56.427Z,8.37
2019-05-23T01:29:26.626Z,8.43
2019-05-23T01:32:12.448Z,8.87
2019-05-23T01:34:41.406Z,8.13
2019-05-23T01:37:10.229Z,9.13
2019-05-23T01:39:38.970Z,8.50
2019-05-23T01:42:08.105Z,8.07
2019-05-23T01:44:37.398Z,8.20
2019-05-23T01:47:06.227Z,8.40
2019-05-23T01:49:35.862Z,8.53
2019-05-23T01:52:05.451Z,8.20
2019-05-23T01:54:34.027Z,8.30
2019-05-23T01:57:03.332Z,7.80
2019-05-23T01:59:32.711Z,7.77
2019-05-23T02:02:01.776Z,7.67
2019-05-23T02:04:30.968Z,7.80
2019-05-23T02:06:59.639Z,7.80
2019-05-23T02:09:28.908Z,7.43
2019-05-23T02:11:57.475Z,7.83
2019-05-23T02:14:27.176Z,7.87
2019-05-23T02:16:58.481Z,7.60
2019-05-23T02:19:28.168Z,7.40
2019-05-23T02:21:57.622Z,7.33
2019-05-23T02:24:26.888Z,7.23
2019-05-23T02:26:56.075Z,6.90
2019-05-23T02:29:26.019Z,6.80
2019-05-23T02:31:54.912Z,6.80
2019-05-23T02:34:24.321Z,6.70
2019-05-23T02:36:53.244Z,7.17
2019-05-23T02:39:39.974Z,6.80
2019-05-23T02:42:18.787Z,7.40
2019-05-23T02:44:48.146Z,6.93
2019-05-23T02:47:33.354Z,7.00
2019-05-23T02:50:02.341Z,7.13
2019-05-23T02:52:38.386Z,6.87
2019-05-23T02:55:10.110Z,7.30
2019-05-23T02:57:38.577Z,7.07
2019-05-23T03:00:52.607Z,7.27
2019-05-23T03:03:09.383Z,7.60
2019-05-23T03:05:38.942Z,7.83
2019-05-23T03:08:09.974Z,7.90
2019-05-23T03:10:58.170Z,7.80
2019-05-23T03:13:30.128Z,7.43
2019-05-23T03:16:00.540Z,7.87
2019-05-23T03:18:34.633Z,7.40
2019-05-23T03:21:04.070Z,7.80
2019-05-23T03:23:34.030Z,7.90
2019-05-23T03:26:33.474Z,7.93
2019-05-23T03:29:03.785Z,8.10
2019-05-23T03:31:34.633Z,7.87
2019-05-23T03:34:03.929Z,7.80
2019-05-23T03:36:33.517Z,7.80
2019-05-23T03:39:04.009Z,8.10
2019-05-23T03:41:32.756Z,7.60
2019-05-23T03:44:03.181Z,7.87
2019-05-23T03:46:32.474Z,7.97
2019-05-23T03:49:02.189Z,8.07
2019-05-23T03:51:31.267Z,7.50
2019-05-23T03:54:02.457Z,7.63
2019-05-23T03:56:31.548Z,7.70
2019-05-23T03:59:00.801Z,7.37
2019-05-23T04:01:46.204Z,7.20
2019-05-23T04:04:03.246Z,7.47
2019-05-23T04:06:33.043Z,7.23
2019-05-23T04:09:03.737Z,7.43
2019-05-23T04:11:32.339Z,7.50
2019-05-23T04:14:01.570Z,6.93
2019-05-23T04:16:31.051Z,7.60
2019-05-23T04:18:59.879Z,8.00
2019-05-23T04:21:28.797Z,7.50
2019-05-23T04:23:57.509Z,7.83
2019-05-23T04:26:26.741Z,7.70
2019-05-23T04:28:55.682Z,6.87
2019-05-23T04:31:24.241Z,7.77
2019-05-23T04:33:53.478Z,7.60
2019-05-23T04:36:22.376Z,7.30
2019-05-23T04:38:51.104Z,8.10
2019-05-23T04:41:19.689Z,7.60
2019-05-23T04:43:48.565Z,7.30
2019-05-23T04:46:17.595Z,8.20
2019-05-23T04:48:46.325Z,7.47
2019-05-23T04:51:15.389Z,7.23
2019-05-23T04:53:44.128Z,7.70
2019-05-23T04:56:13.497Z,7.80
2019-05-23T04:58:42.824Z,7.60
2019-05-23T05:01:12.498Z,7.40
2019-05-23T05:03:43.575Z,7.30
2019-05-23T05:06:12.463Z,7.20
2019-05-23T05:08:41.247Z,7.27
2019-05-23T05:11:10.161Z,7.40
2019-05-23T05:13:39.323Z,7.37
2019-05-23T05:16:08.329Z,7.47
2019-05-23T05:18:37.488Z,7.33
2019-05-23T05:21:05.987Z,6.73
2019-05-23T05:23:34.547Z,7.33
2019-05-23T05:26:03.370Z,6.73
2019-05-23T05:28:31.851Z,6.87
2019-05-23T05:31:00.435Z,6.77
2019-05-23T05:33:29.113Z,6.80
2019-05-23T05:35:57.756Z,7.00
2019-05-23T05:38:28.594Z,6.40
2019-05-23T05:40:57.016Z,6.73
2019-05-23T05:43:25.718Z,7.10
2019-05-23T05:45:55.138Z,6.37
2019-05-23T05:48:23.912Z,7.00
2019-05-23T05:50:52.941Z,7.10
2019-05-23T05:53:21.473Z,6.80
2019-05-23T05:55:50.159Z,6.80
2019-05-23T05:58:18.719Z,6.63
2019-05-23T06:00:49.193Z,6.80
2019-05-23T06:03:18.583Z,6.77
2019-05-23T06:06:07.546Z,6.93
2019-05-23T06:08:37.859Z,6.30
2019-05-23T06:11:07.631Z,6.13
2019-05-23T06:13:36.269Z,6.30
2019-05-23T06:16:05.455Z,6.13
2019-05-23T06:18:34.298Z,5.83
2019-05-23T06:21:03.997Z,5.87
2019-05-23T06:23:33.336Z,6.10
2019-05-23T06:26:02.242Z,5.80
2019-05-23T06:28:32.318Z,6.10
2019-05-23T06:31:01.233Z,6.17
2019-05-23T06:33:30.762Z,5.77
2019-05-23T06:36:00.399Z,5.70
2019-05-23T06:38:30.678Z,5.67
2019-05-23T06:41:02.407Z,5.33
2019-05-23T06:43:31.898Z,5.37
2019-05-23T06:46:00.658Z,5.80
2019-05-23T06:48:30.196Z,6.10
2019-05-23T06:50:58.994Z,6.00
2019-05-23T06:53:27.658Z,5.90
2019-05-23T06:55:56.677Z,5.93
2019-05-23T06:58:27.433Z,5.97
2019-05-23T07:00:57.300Z,5.97
2019-05-23T07:03:41.750Z,5.67
2019-05-23T07:05:57.928Z,5.93
2019-05-23T07:08:29.674Z,6.33
2019-05-23T07:10:58.577Z,6.23
2019-05-23T07:13:31.290Z,6.30
2019-05-23T07:16:00.558Z,6.77
2019-05-23T07:18:30.466Z,6.20
2019-05-23T07:20:59.275Z,6.50
2019-05-23T07:23:29.691Z,6.83
2019-05-23T07:25:59.960Z,7.30
2019-05-23T07:28:29.377Z,7.50
2019-05-23T07:30:58.674Z,7.03
2019-05-23T07:33:27.318Z,7.30
2019-05-23T07:35:56.752Z,7.30
2019-05-23T07:38:27.346Z,6.63
2019-05-23T07:40:57.547Z,6.40
2019-05-23T07:43:26.698Z,6.70
2019-05-23T07:45:58.034Z,6.30
2019-05-23T07:48:28.051Z,6.37
2019-05-23T07:50:56.977Z,6.57
2019-05-23T07:53:27.756Z,7.03
2019-05-23T07:56:03.444Z,7.20
2019-05-23T07:58:34.165Z,7.00
2019-05-23T08:01:09.075Z,8.00
2019-05-23T08:03:40.006Z,7.83
2019-05-23T08:06:08.940Z,8.20
2019-05-23T08:08:37.567Z,8.77
2019-05-23T08:11:06.512Z,7.90
2019-05-23T08:13:35.539Z,8.80
2019-05-23T08:16:04.975Z,9.13
2019-05-23T08:18:33.978Z,8.90
2019-05-23T08:21:02.934Z,8.90
2019-05-23T08:23:33.996Z,9.00
2019-05-23T08:26:03.640Z,8.80
2019-05-23T08:28:33.191Z,8.80
2019-05-23T08:31:03.505Z,8.80
2019-05-23T08:33:32.347Z,9.60
2019-05-23T08:36:06.752Z,9.53
2019-05-23T08:38:36.436Z,8.87
2019-05-23T08:41:07.033Z,9.17
2019-05-23T08:43:36.008Z,9.17
2019-05-23T08:46:05.640Z,8.70
2019-05-23T08:48:34.439Z,8.70
2019-05-23T08:51:05.934Z,7.93
2019-05-23T08:53:34.792Z,8.23
2019-05-23T08:56:17.980Z,7.97
2019-05-23T08:58:36.327Z,8.50
2019-05-23T09:01:07.173Z,7.57
2019-05-23T09:03:37.655Z,7.77
2019-05-23T09:06:07.792Z,7.47
2019-05-23T09:08:36.637Z,7.50
2019-05-23T09:11:06.392Z,7.80
2019-05-23T09:13:36.701Z,7.57
2019-05-23T09:16:07.050Z,7.83
2019-05-23T09:18:35.772Z,7.07
2019-05-23T09:21:05.230Z,6.63
2019-05-23T09:23:33.880Z,6.53
2019-05-23T09:26:02.637Z,7.70
2019-05-23T09:28:31.396Z,7.60
2019-05-23T09:31:00.410Z,7.63
2019-05-23T09:33:30.463Z,7.10
2019-05-23T09:35:59.540Z,6.30
2019-05-23T09:38:28.334Z,6.33
2019-05-23T09:40:57.084Z,7.03
2019-05-23T09:43:27.408Z,6.97
2019-05-23T09:45:55.990Z,7.10
2019-05-23T09:48:25.273Z,6.90
2019-05-23T09:50:54.444Z,6.13
2019-05-23T09:53:24.259Z,6.00
2019-05-23T09:55:55.769Z,4.63
2019-05-23T09:58:23.858Z,5.60
2019-05-23T10:00:52.719Z,5.27
2019-05-23T10:03:21.398Z,5.90
2019-05-23T10:05:50.171Z,6.10
2019-05-23T10:08:21.322Z,5.80
2019-05-23T10:10:50.746Z,5.97
2019-05-23T10:13:36.010Z,6.87
2019-05-23T10:16:04.000Z,6.23
2019-05-23T10:18:32.608Z,6.07
2019-05-23T10:21:01.278Z,5.60
2019-05-23T10:23:30.210Z,5.33
2019-05-23T10:25:59.071Z,5.73
2019-05-23T10:28:34.380Z,5.20
2019-05-23T10:31:06.122Z,5.53
2019-05-23T10:33:34.756Z,5.70
2019-05-23T10:36:03.507Z,5.70
2019-05-23T10:38:32.207Z,5.60
2019-05-23T10:41:07.608Z,5.47
2019-05-23T10:43:36.370Z,5.77
2019-05-23T10:46:05.459Z,4.87
2019-05-23T10:48:34.854Z,4.60
2019-05-23T10:51:03.869Z,5.30
2019-05-23T10:53:33.756Z,6.23
2019-05-23T10:56:02.345Z,6.33
2019-05-23T10:58:31.962Z,6.00
2019-05-23T11:01:00.895Z,5.80
2019-05-23T11:03:29.998Z,5.57
2019-05-23T11:06:14.821Z,5.40
2019-05-23T11:08:31.487Z,5.60
2019-05-23T11:11:03.163Z,6.00
2019-05-23T11:13:33.133Z,6.60
2019-05-23T11:16:03.456Z,6.10
2019-05-23T11:18:34.259Z,6.45
2019-05-23T11:21:02.940Z,5.20
2019-05-23T11:23:33.239Z,5.15
2019-05-23T11:26:03.741Z,5.90
2019-05-23T11:28:35.990Z,5.40
2019-05-23T11:31:08.644Z,5.42
2019-05-23T11:33:37.908Z,6.30
2019-05-23T11:36:07.004Z,6.08
2019-05-23T11:38:37.264Z,5.55
2019-05-23T11:41:06.121Z,5.33
2019-05-23T11:43:36.545Z,4.83
2019-05-23T11:46:07.254Z,5.80
2019-05-23T11:48:36.033Z,5.97
2019-05-23T11:51:07.503Z,5.95
2019-05-23T11:53:37.859Z,5.45
2019-05-23T11:56:06.678Z,5.20
2019-05-23T11:58:35.494Z,5.60
2019-05-23T12:01:19.913Z,4.70
2019-05-23T12:03:41.795Z,4.90
2019-05-23T12:06:11.356Z,5.30
2019-05-23T12:08:40.051Z,5.25
2019-05-23T12:11:08.970Z,5.50
2019-05-23T12:13:37.832Z,4.90
2019-05-23T12:16:08.194Z,4.80
2019-05-23T12:18:37.089Z,4.42
2019-05-23T12:21:09.553Z,5.10
2019-05-23T12:23:38.388Z,4.83
2019-05-23T12:26:08.710Z,4.72
2019-05-23T12:28:38.970Z,5.37
2019-05-23T12:31:07.948Z,5.40
2019-05-23T12:33:38.237Z,5.00
2019-05-23T12:36:07.239Z,4.60
2019-05-23T12:38:37.787Z,5.05
2019-05-23T12:41:07.781Z,5.60
2019-05-23T12:43:36.366Z,5.08
2019-05-23T12:46:05.441Z,5.00
2019-05-23T12:48:40.283Z,4.50
2019-05-23T12:51:10.890Z,4.50
2019-05-23T12:53:39.714Z,5.05
2019-05-23T12:56:08.370Z,5.50
2019-05-23T12:58:37.182Z,5.30
2019-05-23T13:01:13.208Z,5.87
2019-05-23T13:03:43.182Z,5.63
2019-05-23T13:06:12.228Z,5.70
2019-05-23T13:08:41.532Z,5.93
2019-05-23T13:11:12.763Z,6.17
2019-05-23T13:13:49.580Z,5.77
2019-05-23T13:16:18.677Z,5.90
2019-05-23T13:18:47.369Z,5.17
2019-05-23T13:21:16.316Z,4.50
2019-05-23T13:23:45.416Z,4.20
2019-05-23T13:26:22.709Z,4.20
2019-05-23T13:28:51.534Z,4.23
2019-05-23T13:31:20.989Z,3.77
2019-05-23T13:33:49.577Z,4.50
2019-05-23T13:36:18.529Z,5.20
2019-05-23T13:38:54.328Z,4.20
2019-05-23T13:41:24.442Z,4.00
2019-05-23T13:43:53.429Z,3.57
2019-05-23T13:46:22.473Z,3.43
2019-05-23T13:48:51.243Z,3.70
2019-05-23T13:51:26.292Z,3.40
2019-05-23T13:53:55.109Z,3.43
2019-05-23T13:56:24.156Z,3.43
2019-05-23T13:58:54.596Z,3.33
2019-05-23T14:01:23.295Z,4.07
2019-05-23T14:03:55.774Z,4.67
2019-05-23T14:06:24.189Z,4.30
2019-05-23T14:08:54.343Z,4.40
2019-05-23T14:11:23.386Z,4.17
2019-05-23T14:13:59.605Z,3.80
2019-05-23T14:16:27.697Z,4.00
2019-05-23T14:18:56.750Z,4.40
2019-05-23T14:21:26.160Z,4.70
2019-05-23T14:23:54.790Z,4.07
2019-05-23T14:26:23.853Z,4.43
2019-05-23T14:28:59.653Z,4.90
2019-05-23T14:31:30.131Z,5.23
2019-05-23T14:34:03.805Z,5.03
2019-05-23T14:36:36.722Z,4.23
2019-05-23T14:39:09.005Z,3.50
2019-05-23T14:41:45.180Z,3.40
2019-05-23T14:44:12.279Z,2.70
2019-05-23T14:46:42.706Z,3.07
2019-05-23T14:49:13.154Z,2.90
2019-05-23T14:51:52.570Z,2.47
2019-05-23T14:54:22.895Z,3.10
2019-05-23T14:56:52.833Z,2.80
2019-05-23T14:59:21.856Z,2.90
2019-05-23T15:01:51.186Z,2.60
2019-05-23T15:04:21.961Z,2.07
2019-05-23T15:06:50.835Z,2.30
2019-05-23T15:09:21.545Z,1.97
2019-05-23T15:11:50.190Z,1.57
2019-05-23T15:14:19.042Z,1.60
2019-05-23T15:16:47.916Z,1.80
2019-05-23T15:19:36.455Z,1.40
2019-05-23T15:21:47.018Z,1.40
2019-05-23T15:24:15.875Z,1.40
2019-05-23T15:26:44.672Z,1.20
2019-05-23T15:29:13.918Z,1.47
2019-05-23T15:31:43.011Z,1.70
2019-05-23T15:34:19.637Z,1.57
2019-05-23T15:36:49.856Z,1.50
2019-05-23T15:39:20.171Z,1.73
2019-05-23T15:41:48.926Z,1.90
2019-05-23T15:44:27.359Z,1.63
2019-05-23T15:46:48.644Z,2.40
2019-05-23T15:49:17.738Z,1.80
2019-05-23T15:51:53.908Z,1.60
2019-05-23T15:54:22.974Z,1.90
2019-05-23T15:57:02.229Z,1.80
2019-05-23T15:59:33.392Z,1.63
2019-05-23T16:02:03.957Z,1.90
2019-05-23T16:04:32.990Z,1.93
2019-05-23T16:07:02.034Z,2.07
2019-05-23T16:09:31.454Z,2.17
2019-05-23T16:12:00.397Z,2.00
2019-05-23T16:14:29.368Z,1.93
2019-05-23T16:16:58.524Z,1.80
2019-05-23T16:19:27.089Z,2.00
2019-05-23T16:21:57.685Z,1.90
2019-05-23T16:24:26.493Z,1.90
2019-05-23T16:26:55.804Z,1.90
2019-05-23T16:29:26.557Z,1.90
2019-05-23T16:31:55.391Z,2.03
2019-05-23T16:34:25.758Z,1.73
2019-05-23T16:36:54.489Z,1.80
2019-05-23T16:39:23.498Z,1.77
2019-05-23T16:41:52.556Z,1.60
2019-05-23T16:44:21.416Z,1.77
2019-05-23T16:46:52.374Z,1.80
2019-05-23T16:49:21.099Z,1.87
2019-05-23T16:51:50.594Z,1.90
2019-05-23T16:54:21.063Z,1.93
2019-05-23T16:57:10.303Z,2.10
2019-05-23T16:59:40.851Z,1.77
2019-05-23T17:02:19.965Z,2.00
2019-05-23T17:05:09.863Z,1.90
2019-05-23T17:07:40.644Z,1.93
2019-05-23T17:10:15.122Z,2.13
2019-05-23T17:12:45.468Z,1.80
2019-05-23T17:15:16.441Z,1.70
2019-05-23T17:18:01.427Z,2.00
2019-05-23T17:20:35.416Z,2.10
2019-05-23T17:23:14.433Z,1.80
2019-05-23T17:25:44.909Z,1.60
2019-05-23T17:28:15.322Z,1.60
2019-05-23T17:30:50.148Z,1.60
2019-05-23T17:33:20.053Z,1.70
2019-05-23T17:35:49.014Z,1.77
2019-05-23T17:38:17.966Z,1.90
2019-05-23T17:40:47.086Z,1.70
2019-05-23T17:43:16.711Z,1.90
2019-05-23T17:45:46.421Z,1.40
2019-05-23T17:48:16.315Z,1.80
2019-05-23T17:50:46.537Z,1.67
2019-05-23T17:53:15.722Z,1.83
2019-05-23T17:55:45.405Z,1.80
2019-05-23T17:58:14.131Z,1.73
2019-05-23T18:00:45.221Z,1.77
2019-05-23T18:03:14.460Z,1.73
2019-05-23T18:05:43.516Z,1.83
2019-05-23T18:08:16.024Z,1.70
2019-05-23T18:10:46.141Z,2.03
2019-05-23T18:13:16.649Z,2.23
2019-05-23T18:15:46.032Z,1.87
2019-05-23T18:18:18.923Z,2.00
2019-05-23T18:20:48.618Z,1.60
2019-05-23T18:23:17.864Z,1.60
2019-05-23T18:25:47.617Z,1.83
2019-05-23T18:28:16.314Z,2.10
2019-05-23T18:30:48.487Z,1.43
2019-05-23T18:33:18.266Z,1.77
2019-05-23T18:35:48.295Z,1.90
2019-05-23T18:38:18.386Z,1.50
2019-05-23T18:41:01.602Z,1.87
2019-05-23T18:43:20.357Z,1.80
2019-05-23T18:45:51.918Z,2.20
2019-05-23T18:48:20.644Z,2.90
2019-05-23T18:50:50.319Z,3.97
2019-05-23T18:53:19.905Z,2.80
2019-05-23T18:55:50.659Z,2.30
2019-05-23T18:58:20.533Z,2.20
2019-05-23T19:00:56.759Z,2.20
2019-05-23T19:03:25.540Z,2.20
2019-05-23T19:05:54.375Z,2.10
2019-05-23T19:08:24.147Z,2.10
2019-05-23T19:10:53.386Z,1.87
2019-05-23T19:13:22.169Z,1.60
2019-05-23T19:15:51.070Z,1.70
2019-05-23T19:18:19.956Z,1.47
2019-05-23T19:20:54.358Z,1.70
2019-05-23T19:23:19.717Z,1.50
2019-05-23T19:25:49.524Z,1.67
2019-05-23T19:28:18.549Z,1.60
2019-05-23T19:30:49.194Z,1.23
2019-05-23T19:33:23.582Z,1.57
2019-05-23T19:35:52.689Z,1.57
2019-05-23T19:38:21.798Z,1.40
2019-05-23T19:40:51.733Z,1.30
2019-05-23T19:43:21.173Z,1.67
2019-05-23T19:45:58.229Z,1.40
2019-05-23T19:48:27.486Z,1.30
2019-05-23T19:50:57.211Z,1.60
2019-05-23T19:53:26.082Z,1.40
2019-05-23T19:55:54.921Z,1.73
2019-05-23T19:58:24.367Z,1.50
2019-05-23T20:00:53.508Z,1.60
2019-05-23T20:03:22.343Z,1.67
2019-05-23T20:05:57.487Z,1.57
2019-05-23T20:08:26.358Z,1.80
2019-05-23T20:10:55.215Z,1.80
2019-05-23T20:13:23.881Z,1.40
2019-05-23T20:15:52.676Z,1.60
2019-05-23T20:18:21.651Z,1.47
2019-05-23T20:20:50.848Z,1.50
2019-05-23T20:23:19.681Z,1.70
2019-05-23T20:25:48.322Z,1.80
2019-05-23T20:28:17.297Z,1.80
2019-05-23T20:30:50.641Z,2.17
2019-05-23T20:33:19.195Z,2.20
2019-05-23T20:35:48.213Z,3.30
2019-05-23T20:38:16.942Z,3.30
2019-05-23T20:40:45.413Z,3.00
2019-05-23T20:43:14.059Z,2.80
2019-05-23T20:45:43.038Z,2.53
2019-05-23T20:48:11.749Z,2.60
2019-05-23T20:50:40.375Z,1.80
2019-05-23T20:53:09.122Z,2.07
2019-05-23T20:55:37.670Z,1.97
2019-05-23T20:58:06.609Z,2.33
2019-05-23T21:00:42.461Z,1.87
2019-05-23T21:03:11.036Z,1.83
2019-05-23T21:05:39.592Z,1.80
2019-05-23T21:08:08.221Z,2.00
2019-05-23T21:10:42.842Z,2.10
2019-05-23T21:13:11.523Z,1.90
2019-05-23T21:15:40.969Z,2.20
2019-05-23T21:18:09.915Z,2.10
2019-05-23T21:20:38.497Z,2.10
2019-05-23T21:23:07.075Z,2.20
2019-05-23T21:28:25.204Z,1.90
2019-05-23T21:30:53.787Z,2.30
2019-05-23T21:33:22.512Z,2.17
2019-05-23T21:35:51.585Z,2.20
2019-05-23T21:38:20.391Z,2.10
2019-05-23T21:40:49.109Z,2.30
2019-05-23T21:43:17.746Z,2.20
2019-05-23T21:45:46.544Z,2.43
2019-05-23T21:48:15.241Z,2.37
2019-05-23T21:50:44.089Z,2.30
2019-05-23T21:53:12.814Z,2.60
2019-05-23T21:55:43.049Z,2.70
2019-05-23T21:58:13.141Z,2.37
2019-05-23T22:01:07.267Z,2.33
2019-05-23T22:03:38.306Z,2.50
2019-05-23T22:06:10.146Z,2.50
2019-05-23T22:08:38.770Z,2.80
2019-05-23T22:11:07.918Z,2.20
2019-05-23T22:13:36.654Z,2.23
2019-05-23T22:16:05.353Z,2.27
2019-05-23T22:18:34.003Z,2.50
2019-05-23T22:21:02.485Z,2.60
2019-05-23T22:23:34.464Z,2.60
2019-05-23T22:26:01.332Z,2.63
2019-05-23T22:28:30.456Z,2.70
2019-05-23T22:30:59.406Z,2.60
2019-05-23T22:33:29.874Z,2.40
2019-05-23T22:35:59.980Z,2.33
2019-05-23T22:38:28.968Z,2.40
2019-05-23T22:40:57.665Z,2.33
2019-05-23T22:43:26.300Z,2.50
2019-05-23T22:45:54.939Z,2.30
2019-05-23T22:48:23.494Z,2.60
2019-05-23T22:50:52.060Z,2.50
2019-05-23T22:53:20.615Z,2.60
2019-05-23T22:55:49.206Z,2.60
2019-05-23T22:58:17.824Z,2.70
2019-05-23T23:00:48.035Z,2.80
2019-05-23T23:03:16.602Z,2.50
2019-05-23T23:05:45.179Z,2.83
2019-05-23T23:08:13.903Z,2.57
2019-05-23T23:10:42.465Z,2.40
2019-05-23T23:13:11.595Z,2.57
2019-05-23T23:15:40.236Z,2.63
2019-05-23T23:18:08.960Z,2.63
2019-05-23T23:20:37.522Z,2.80
2019-05-23T23:23:06.153Z,2.50
2019-05-23T23:25:34.729Z,2.90
2019-05-23T23:28:03.494Z,2.80
2019-05-23T23:30:36.778Z,2.80
2019-05-23T23:33:05.408Z,2.87
2019-05-23T23:35:35.101Z,3.17
2019-05-23T23:38:03.730Z,3.20
2019-05-23T23:40:32.856Z,2.77
2019-05-23T23:43:01.410Z,3.27
2019-05-23T23:45:48.039Z,3.10
2019-05-23T23:48:34.552Z,3.07
2019-05-23T23:51:21.191Z,3.30
2019-05-23T23:54:07.689Z,3.33
2019-05-23T23:56:54.163Z,3.40
2019-05-23T23:59:22.088Z,3.30
